Overview Statistics Trail Chart Weather Telemetry Raw packets
 

This is the latest recevied packets stored in our database for station/object OE6ATD-1. If no packets are shown the sender has not sent any packets the latest 24 hours.

If you compare the raw packets with similar data from other websites it may differ (especially the path), the reason is that we are not collecting packets from the same APRS-IS servers. Each APRS-IS server performes duplicate filtering, and which packet that is considered to be a duplicate may differ depending on which APRS-IS server you receive your data from.

<< 1 2 3 4 >>

1788699836: OE6ATD-1>APRSMC,TCPIP*,qAR,OE6GBG-12:T#595,994.2,24.5,52.4,1025.2,0.0,00000000

1788699836: OE6ATD-1>APRSMC,TCPIP*,qAR,OE6GBG-12:!4646.40NA01532.33E#Alfred ADL613#Leibnitz JN76ss/B=100/A=000879

1788698021: OE6ATD-1>APRSMC,TCPIP*,qAR,OE6BYD-12:T#594,994.4,25.6,50.1,1025.3,0.0,00000000

1788698021: OE6ATD-1>APRSMC,TCPIP*,qAR,OE6BYD-12:!4646.40NA01532.33E#Alfred ADL613#Leibnitz JN76ss/B=100/A=000879

1788696205: OE6ATD-1>APRSMC,TCPIP*,qAR,OE6GBG-12:T#593,994.5,25.4,50.5,1025.5,0.0,00000000

1788696205: OE6ATD-1>APRSMC,TCPIP*,qAR,OE6GBG-12:!4646.40NA01532.33E#Alfred ADL613#Leibnitz JN76ss/B=100/A=000879

1788694393: OE6ATD-1>APRSMC,TCPIP*,qAR,OE6GBG-12:T#592,994.8,25.2,51.1,1025.8,0.0,00000000

1788694393: OE6ATD-1>APRSMC,TCPIP*,qAR,OE6GBG-12:!4646.40NA01532.33E#Alfred ADL613#Leibnitz JN76ss/B=100/A=000879

1788692575: OE6ATD-1>APRSMC,TCPIP*,qAR,OE6GBG-12:T#591,995.0,25.0,51.5,1026.0,0.0,00000000

1788692575: OE6ATD-1>APRSMC,TCPIP*,qAR,OE6GBG-12::OE6ATD-1 :PARM.Press,Temp.in,Hum,QNH,Temp.out,track,-,-,-,-,-,-,-

1788692575: OE6ATD-1>APRSMC,TCPIP*,qAR,OE6GBG-12::OE6ATD-1 :EQNS.0,1,0,0,1,0,0,1,0,0,1,0,0,1,0

1788692575: OE6ATD-1>APRSMC,TCPIP*,qAR,OE6GBG-12::OE6ATD-1 :UNIT.hPa,C deg,%,hPa,C deg,Y/N,O/N,O/N,O/N,O/N,O/N,O/N,O/N

1788692575: OE6ATD-1>APRSMC,TCPIP*,qAR,OE6GBG-12:!4646.40NA01532.33E#Alfred ADL613#Leibnitz JN76ss/B=100/A=000879

1788690759: OE6ATD-1>APRSMC,TCPIP*,qAR,OE6GBG-12:T#590,995.3,24.8,57.8,1026.3,0.0,00000000

1788690759: OE6ATD-1>APRSMC,TCPIP*,qAR,OE6GBG-12:!4646.40NA01532.33E#Alfred ADL613#Leibnitz JN76ss/B=100/A=000879

1788688943: OE6ATD-1>APRSMC,TCPIP*,qAR,OE6GBG-12:T#589,995.5,24.7,58.5,1026.5,0.0,00000000

1788688943: OE6ATD-1>APRSMC,TCPIP*,qAR,OE6GBG-12:!4646.40NA01532.33E#Alfred ADL613#Leibnitz JN76ss/B=100/A=000879

1788687129: OE6ATD-1>APRSMC,TCPIP*,qAR,OE6GBG-12:T#588,995.9,24.6,56.8,1026.9,0.0,00000000

1788687129: OE6ATD-1>APRSMC,TCPIP*,qAR,OE6GBG-12:!4646.40NA01532.33E#Alfred ADL613#Leibnitz JN76ss/B=100/A=000879

1788685314: OE6ATD-1>APRSMC,TCPIP*,qAR,OE6BYD-12:!4646.40NA01532.33E#Alfred ADL613#Leibnitz JN76ss/B=100/A=000879

1788685314: OE6ATD-1>APRSMC,TCPIP*,qAR,OE6BYD-12:T#587,996.0,24.6,60.0,1027.0,0.0,00000000

1788683499: OE6ATD-1>APRSMC,TCPIP*,qAR,OE6GBG-12:T#586,996.2,24.5,60.0,1027.3,0.0,00000000

1788683499: OE6ATD-1>APRSMC,TCPIP*,qAR,OE6GBG-12:!4646.40NA01532.33E#Alfred ADL613#Leibnitz JN76ss/B=100/A=000879

1788681685: OE6ATD-1>APRSMC,TCPIP*,qAR,OE6BYD-12:!4646.40NA01532.33E#Alfred ADL613#Leibnitz JN76ss/B=100/A=000879

1788681685: OE6ATD-1>APRSMC,TCPIP*,qAR,OE6BYD-12:T#585,996.3,24.6,60.2,1027.4,0.0,00000000